createdAt,value
2019-03-27T00:00:25.852Z,25.58
2019-03-27T00:02:28.043Z,25.49
2019-03-27T00:04:30.236Z,25.61
2019-03-27T00:06:32.430Z,25.53
2019-03-27T00:08:42.629Z,25.56
2019-03-27T00:10:44.824Z,25.53
2019-03-27T00:12:47.032Z,25.69
2019-03-27T00:14:49.228Z,25.69
2019-03-27T00:16:51.422Z,25.68
2019-03-27T00:18:53.617Z,25.66
2019-03-27T00:20:55.811Z,25.71
2019-03-27T00:22:58.011Z,25.71
2019-03-27T00:25:00.370Z,25.76
2019-03-27T00:27:02.577Z,25.81
2019-03-27T00:29:04.774Z,25.77
2019-03-27T00:31:06.966Z,25.90
2019-03-27T00:33:09.166Z,25.72
2019-03-27T00:35:11.369Z,25.82
2019-03-27T00:37:13.567Z,25.73
2019-03-27T00:39:15.765Z,25.81
2019-03-27T00:41:17.962Z,25.87
2019-03-27T00:43:20.169Z,25.90
2019-03-27T00:45:26.762Z,25.91
2019-03-27T00:47:29.256Z,25.89
2019-03-27T00:49:31.459Z,25.87
2019-03-27T00:51:33.656Z,25.94
2019-03-27T00:53:35.862Z,25.84
2019-03-27T00:55:38.064Z,25.96
2019-03-27T00:57:40.265Z,25.96
2019-03-27T00:59:42.466Z,25.93
2019-03-27T01:01:44.661Z,25.96
2019-03-27T01:03:46.857Z,26.09
2019-03-27T01:05:49.050Z,26.10
2019-03-27T01:07:51.242Z,26.04
2019-03-27T01:09:53.440Z,26.03
2019-03-27T01:11:55.634Z,26.01
2019-03-27T01:13:57.827Z,26.03
2019-03-27T01:16:00.026Z,25.92
2019-03-27T01:18:02.232Z,26.01
2019-03-27T01:20:04.431Z,26.09
2019-03-27T01:22:06.632Z,26.12
2019-03-27T01:24:08.829Z,26.09
2019-03-27T01:26:11.032Z,25.98
2019-03-27T01:28:13.233Z,26.16
2019-03-27T01:30:15.505Z,26.20
2019-03-27T01:32:17.703Z,26.10
2019-03-27T01:34:19.897Z,26.30
2019-03-27T01:36:22.092Z,26.17
2019-03-27T01:38:24.292Z,26.20
2019-03-27T01:40:26.485Z,26.11
2019-03-27T01:42:28.677Z,26.36
2019-03-27T01:44:30.873Z,26.20
2019-03-27T01:46:33.068Z,26.25
2019-03-27T01:48:35.270Z,26.27
2019-03-27T01:50:37.464Z,26.46
2019-03-27T01:52:39.659Z,26.33
2019-03-27T01:54:41.853Z,26.44
2019-03-27T01:56:44.123Z,26.49
2019-03-27T01:58:46.320Z,26.33
2019-03-27T02:00:48.523Z,26.47
2019-03-27T02:02:50.732Z,26.33
2019-03-27T02:04:52.924Z,26.51
2019-03-27T02:07:02.221Z,26.44
2019-03-27T02:09:04.417Z,26.51
2019-03-27T02:11:06.624Z,26.47
2019-03-27T02:13:08.832Z,26.50
2019-03-27T02:15:11.109Z,26.44
2019-03-27T02:17:20.733Z,26.59
